sensor_id;sensor_type;location;lat;lon;timestamp;pressure;altitude;pressure_sealevel;temperature;humidity
63552;BME280;49698;48.072;7.800;2023-04-08T00:00:51;99758.50;;;7.43;81.01
63552;BME280;49698;48.072;7.800;2023-04-08T00:03:19;99754.22;;;7.42;81.28
63552;BME280;49698;48.072;7.800;2023-04-08T00:05:47;99763.00;;;7.38;81.21
63552;BME280;49698;48.072;7.800;2023-04-08T00:08:16;99755.75;;;7.33;81.44
63552;BME280;49698;48.072;7.800;2023-04-08T00:10:45;99753.84;;;7.28;81.46
63552;BME280;49698;48.072;7.800;2023-04-08T00:13:13;99751.09;;;7.23;81.47
63552;BME280;49698;48.072;7.800;2023-04-08T00:15:41;99752.94;;;7.18;82.12
63552;BME280;49698;48.072;7.800;2023-04-08T00:18:09;99751.81;;;7.14;82.04
63552;BME280;49698;48.072;7.800;2023-04-08T00:20:37;99744.88;;;7.13;82.08
63552;BME280;49698;48.072;7.800;2023-04-08T00:23:05;99745.91;;;7.11;82.25
63552;BME280;49698;48.072;7.800;2023-04-08T00:25:33;99752.56;;;7.09;82.05
63552;BME280;49698;48.072;7.800;2023-04-08T00:28:02;99755.75;;;7.06;82.33
63552;BME280;49698;48.072;7.800;2023-04-08T00:30:30;99755.44;;;7.02;82.07
63552;BME280;49698;48.072;7.800;2023-04-08T00:32:59;99759.66;;;6.98;82.71
63552;BME280;49698;48.072;7.800;2023-04-08T00:35:27;99757.22;;;6.97;82.19
63552;BME280;49698;48.072;7.800;2023-04-08T00:37:55;99757.50;;;6.95;82.55
63552;BME280;49698;48.072;7.800;2023-04-08T00:40:23;99756.94;;;6.93;82.71
63552;BME280;49698;48.072;7.800;2023-04-08T00:42:51;99752.09;;;6.90;82.72
63552;BME280;49698;48.072;7.800;2023-04-08T00:45:21;99751.47;;;6.83;82.82
63552;BME280;49698;48.072;7.800;2023-04-08T00:47:49;99756.19;;;6.76;82.74
63552;BME280;49698;48.072;7.800;2023-04-08T00:50:18;99757.16;;;6.70;82.76
63552;BME280;49698;48.072;7.800;2023-04-08T00:52:46;99761.41;;;6.66;82.84
63552;BME280;49698;48.072;7.800;2023-04-08T00:55:14;99764.81;;;6.61;83.32
63552;BME280;49698;48.072;7.800;2023-04-08T00:57:43;99766.13;;;6.58;83.06
63552;BME280;49698;48.072;7.800;2023-04-08T01:00:13;99761.19;;;6.50;83.44
63552;BME280;49698;48.072;7.800;2023-04-08T01:02:46;99756.28;;;6.42;83.48
63552;BME280;49698;48.072;7.800;2023-04-08T01:05:19;99760.19;;;6.34;83.82
63552;BME280;49698;48.072;7.800;2023-04-08T01:07:51;99766.53;;;6.28;83.82
63552;BME280;49698;48.072;7.800;2023-04-08T01:10:22;99765.09;;;6.21;83.70
63552;BME280;49698;48.072;7.800;2023-04-08T01:12:55;99764.97;;;6.16;83.86
63552;BME280;49698;48.072;7.800;2023-04-08T01:15:25;99765.25;;;6.14;84.16
63552;BME280;49698;48.072;7.800;2023-04-08T01:17:56;99763.84;;;6.11;83.88
63552;BME280;49698;48.072;7.800;2023-04-08T01:20:26;99764.38;;;6.08;83.77
63552;BME280;49698;48.072;7.800;2023-04-08T01:23:04;99767.25;;;6.07;84.07
63552;BME280;49698;48.072;7.800;2023-04-08T01:25:36;99768.31;;;6.06;84.30
63552;BME280;49698;48.072;7.800;2023-04-08T01:28:07;99758.44;;;6.06;84.06
63552;BME280;49698;48.072;7.800;2023-04-08T01:30:37;99763.31;;;6.09;83.87
63552;BME280;49698;48.072;7.800;2023-04-08T01:33:06;99763.84;;;6.11;83.92
63552;BME280;49698;48.072;7.800;2023-04-08T01:35:34;99761.19;;;6.11;83.59
63552;BME280;49698;48.072;7.800;2023-04-08T01:38:04;99760.16;;;6.12;83.90
63552;BME280;49698;48.072;7.800;2023-04-08T01:40:34;99762.81;;;6.12;83.92
63552;BME280;49698;48.072;7.800;2023-04-08T01:43:05;99764.91;;;6.10;83.64
63552;BME280;49698;48.072;7.800;2023-04-08T01:45:35;99764.38;;;6.08;84.26
63552;BME280;49698;48.072;7.800;2023-04-08T01:48:03;99770.31;;;6.16;84.08
63552;BME280;49698;48.072;7.800;2023-04-08T01:50:33;99766.22;;;6.25;84.01
63552;BME280;49698;48.072;7.800;2023-04-08T01:53:01;99758.25;;;6.30;83.72
63552;BME280;49698;48.072;7.800;2023-04-08T01:55:32;99759.16;;;6.35;83.68
63552;BME280;49698;48.072;7.800;2023-04-08T01:58:00;99771.50;;;6.42;83.78
63552;BME280;49698;48.072;7.800;2023-04-08T02:00:30;99765.41;;;6.46;83.16
63552;BME280;49698;48.072;7.800;2023-04-08T02:03:01;99760.91;;;6.47;83.59
63552;BME280;49698;48.072;7.800;2023-04-08T02:05:29;99764.88;;;6.44;83.72
63552;BME280;49698;48.072;7.800;2023-04-08T02:07:57;99767.53;;;6.44;83.76
63552;BME280;49698;48.072;7.800;2023-04-08T02:10:26;99759.03;;;6.47;83.64
63552;BME280;49698;48.072;7.800;2023-04-08T02:12:55;99763.63;;;6.52;83.62
63552;BME280;49698;48.072;7.800;2023-04-08T02:15:25;99763.69;;;6.57;83.63
63552;BME280;49698;48.072;7.800;2023-04-08T02:18:02;99760.28;;;6.61;83.45
63552;BME280;49698;48.072;7.800;2023-04-08T02:20:40;99763.22;;;6.60;83.43
63552;BME280;49698;48.072;7.800;2023-04-08T02:23:13;99769.34;;;6.60;83.34
63552;BME280;49698;48.072;7.800;2023-04-08T02:25:43;99775.81;;;6.65;83.48
63552;BME280;49698;48.072;7.800;2023-04-08T02:28:12;99771.28;;;6.65;83.49
63552;BME280;49698;48.072;7.800;2023-04-08T02:30:43;99776.31;;;6.61;83.55
63552;BME280;49698;48.072;7.800;2023-04-08T02:33:17;99769.03;;;6.57;83.55
63552;BME280;49698;48.072;7.800;2023-04-08T02:35:47;99770.09;;;6.56;83.80
63552;BME280;49698;48.072;7.800;2023-04-08T02:38:16;99779.72;;;6.57;83.81
63552;BME280;49698;48.072;7.800;2023-04-08T02:40:44;99776.25;;;6.56;83.57
63552;BME280;49698;48.072;7.800;2023-04-08T02:43:12;99775.19;;;6.57;84.03
63552;BME280;49698;48.072;7.800;2023-04-08T02:45:41;99774.69;;;6.60;83.71
63552;BME280;49698;48.072;7.800;2023-04-08T02:48:09;99780.03;;;6.60;83.71
63552;BME280;49698;48.072;7.800;2023-04-08T02:50:39;99779.50;;;6.58;83.52
63552;BME280;49698;48.072;7.800;2023-04-08T02:53:07;99774.16;;;6.58;83.43
63552;BME280;49698;48.072;7.800;2023-04-08T02:55:36;99778.16;;;6.61;83.39
63552;BME280;49698;48.072;7.800;2023-04-08T02:58:05;99776.06;;;6.63;83.57
63552;BME280;49698;48.072;7.800;2023-04-08T03:00:33;99772.34;;;6.64;83.50
63552;BME280;49698;48.072;7.800;2023-04-08T03:03:01;99767.56;;;6.66;83.38
63552;BME280;49698;48.072;7.800;2023-04-08T03:05:29;99768.38;;;6.67;83.40
63552;BME280;49698;48.072;7.800;2023-04-08T03:07:58;99767.31;;;6.68;83.53
63552;BME280;49698;48.072;7.800;2023-04-08T03:10:26;99768.69;;;6.70;83.20
63552;BME280;49698;48.072;7.800;2023-04-08T03:12:54;99764.69;;;6.73;82.77
63552;BME280;49698;48.072;7.800;2023-04-08T03:15:22;99760.72;;;6.75;82.94
63552;BME280;49698;48.072;7.800;2023-04-08T03:17:50;99758.59;;;6.77;82.62
63552;BME280;49698;48.072;7.800;2023-04-08T03:20:17;99756.50;;;6.79;83.09
63552;BME280;49698;48.072;7.800;2023-04-08T03:22:46;99763.47;;;6.80;82.94
63552;BME280;49698;48.072;7.800;2023-04-08T03:25:15;99765.09;;;6.81;82.82
63552;BME280;49698;48.072;7.800;2023-04-08T03:27:43;99769.13;;;6.84;82.81
63552;BME280;49698;48.072;7.800;2023-04-08T03:30:11;99770.97;;;6.83;82.69
63552;BME280;49698;48.072;7.800;2023-04-08T03:32:39;99769.59;;;6.81;82.67
63552;BME280;49698;48.072;7.800;2023-04-08T03:35:08;99769.28;;;6.77;82.75
63552;BME280;49698;48.072;7.800;2023-04-08T03:37:36;99777.25;;;6.72;82.88
63552;BME280;49698;48.072;7.800;2023-04-08T03:40:05;99769.19;;;6.67;82.90
63552;BME280;49698;48.072;7.800;2023-04-08T03:42:34;99781.16;;;6.65;83.25
63552;BME280;49698;48.072;7.800;2023-04-08T03:45:03;99769.94;;;6.63;83.33
63552;BME280;49698;48.072;7.800;2023-04-08T03:47:32;99774.22;;;6.64;83.42
63552;BME280;49698;48.072;7.800;2023-04-08T03:50:00;99770.25;;;6.66;83.36
63552;BME280;49698;48.072;7.800;2023-04-08T03:52:29;99767.81;;;6.65;82.99
63552;BME280;49698;48.072;7.800;2023-04-08T03:54:57;99772.81;;;6.61;83.41
63552;BME280;49698;48.072;7.800;2023-04-08T03:57:24;99773.91;;;6.60;83.22
63552;BME280;49698;48.072;7.800;2023-04-08T03:59:54;99764.81;;;6.61;83.42
63552;BME280;49698;48.072;7.800;2023-04-08T04:02:22;99763.47;;;6.58;83.16
63552;BME280;49698;48.072;7.800;2023-04-08T04:04:50;99768.22;;;6.56;83.89
63552;BME280;49698;48.072;7.800;2023-04-08T04:07:18;99771.97;;;6.55;83.59
63552;BME280;49698;48.072;7.800;2023-04-08T04:09:46;99765.31;;;6.58;83.76
63552;BME280;49698;48.072;7.800;2023-04-08T04:12:14;99769.34;;;6.60;83.45
63552;BME280;49698;48.072;7.800;2023-04-08T04:14:42;99775.28;;;6.63;83.25
63552;BME280;49698;48.072;7.800;2023-04-08T04:17:11;99776.63;;;6.65;83.32
63552;BME280;49698;48.072;7.800;2023-04-08T04:19:39;99765.94;;;6.65;83.29
63552;BME280;49698;48.072;7.800;2023-04-08T04:22:07;99770.00;;;6.68;83.25
63552;BME280;49698;48.072;7.800;2023-04-08T04:24:35;99765.72;;;6.67;83.25
63552;BME280;49698;48.072;7.800;2023-04-08T04:27:03;99773.72;;;6.67;83.21
63552;BME280;49698;48.072;7.800;2023-04-08T04:29:31;99773.72;;;6.67;82.93
63552;BME280;49698;48.072;7.800;2023-04-08T04:31:59;99773.72;;;6.67;83.33
63552;BME280;49698;48.072;7.800;2023-04-08T04:34:28;99781.72;;;6.67;83.37
63552;BME280;49698;48.072;7.800;2023-04-08T04:36:56;99782.28;;;6.69;83.45
63552;BME280;49698;48.072;7.800;2023-04-08T04:39:24;99787.13;;;6.72;82.84
63552;BME280;49698;48.072;7.800;2023-04-08T04:41:53;99790.59;;;6.72;83.14
63552;BME280;49698;48.072;7.800;2023-04-08T04:44:21;99793.59;;;6.76;82.87
63552;BME280;49698;48.072;7.800;2023-04-08T04:46:48;99790.66;;;6.77;83.14
63552;BME280;49698;48.072;7.800;2023-04-08T04:49:17;99796.84;;;6.78;82.95
63552;BME280;49698;48.072;7.800;2023-04-08T04:51:46;99797.16;;;6.81;83.06
63552;BME280;49698;48.072;7.800;2023-04-08T04:54:14;99795.84;;;6.84;82.97
63552;BME280;49698;48.072;7.800;2023-04-08T04:56:42;99798.75;;;6.82;83.02
63552;BME280;49698;48.072;7.800;2023-04-08T04:59:10;99800.84;;;6.80;82.88
63552;BME280;49698;48.072;7.800;2023-04-08T05:01:38;99802.19;;;6.78;82.87
63552;BME280;49698;48.072;7.800;2023-04-08T05:04:06;99801.59;;;6.76;83.13
63552;BME280;49698;48.072;7.800;2023-04-08T05:06:34;99804.78;;;6.73;83.16
63552;BME280;49698;48.072;7.800;2023-04-08T05:09:04;99805.25;;;6.70;83.32
63552;BME280;49698;48.072;7.800;2023-04-08T05:11:31;99811.13;;;6.67;83.65
63552;BME280;49698;48.072;7.800;2023-04-08T05:13:59;99814.34;;;6.69;83.74
63552;BME280;49698;48.072;7.800;2023-04-08T05:16:27;99808.50;;;6.72;83.52
63552;BME280;49698;48.072;7.800;2023-04-08T05:18:55;99814.97;;;6.76;83.40
63552;BME280;49698;48.072;7.800;2023-04-08T05:21:23;99817.94;;;6.79;83.08
63552;BME280;49698;48.072;7.800;2023-04-08T05:23:52;99819.88;;;6.84;83.16
63552;BME280;49698;48.072;7.800;2023-04-08T05:26:21;99810.31;;;6.88;82.68
63552;BME280;49698;48.072;7.800;2023-04-08T05:28:50;99819.75;;;6.96;82.59
63552;BME280;49698;48.072;7.800;2023-04-08T05:31:19;99816.59;;;6.99;82.37
63552;BME280;49698;48.072;7.800;2023-04-08T05:33:47;99821.69;;;7.00;82.60
63552;BME280;49698;48.072;7.800;2023-04-08T05:36:15;99822.78;;;7.04;82.55
63552;BME280;49698;48.072;7.800;2023-04-08T05:38:43;99822.78;;;7.04;82.44
63552;BME280;49698;48.072;7.800;2023-04-08T05:41:11;99826.53;;;7.03;82.45
63552;BME280;49698;48.072;7.800;2023-04-08T05:43:40;99832.13;;;7.02;82.03
63552;BME280;49698;48.072;7.800;2023-04-08T05:46:09;99832.47;;;7.05;82.14
63552;BME280;49698;48.072;7.800;2023-04-08T05:48:37;99834.91;;;7.12;82.03
63552;BME280;49698;48.072;7.800;2023-04-08T05:51:05;99838.72;;;7.16;81.73
63552;BME280;49698;48.072;7.800;2023-04-08T05:53:33;99838.28;;;7.24;82.15
63552;BME280;49698;48.072;7.800;2023-04-08T05:56:02;99833.31;;;7.33;81.76
63552;BME280;49698;48.072;7.800;2023-04-08T05:58:30;99838.22;;;7.41;81.45
63552;BME280;49698;48.072;7.800;2023-04-08T06:01:00;99844.16;;;7.48;81.11
63552;BME280;49698;48.072;7.800;2023-04-08T06:03:29;99848.00;;;7.57;80.83
63552;BME280;49698;48.072;7.800;2023-04-08T06:05:57;99845.69;;;7.66;80.59
63552;BME280;49698;48.072;7.800;2023-04-08T06:08:26;99850.34;;;7.76;80.39
63552;BME280;49698;48.072;7.800;2023-04-08T06:10:57;99857.91;;;7.84;80.29
63552;BME280;49698;48.072;7.800;2023-04-08T06:13:24;99861.41;;;7.90;79.95
63552;BME280;49698;48.072;7.800;2023-04-08T06:15:52;99866.28;;;7.93;79.60
63552;BME280;49698;48.072;7.800;2023-04-08T06:18:22;99872.50;;;7.98;79.66
63552;BME280;49698;48.072;7.800;2023-04-08T06:20:50;99867.97;;;8.04;79.57
63552;BME280;49698;48.072;7.800;2023-04-08T06:23:18;99868.28;;;8.07;79.60
63552;BME280;49698;48.072;7.800;2023-04-08T06:25:46;99873.13;;;8.11;79.38
63552;BME280;49698;48.072;7.800;2023-04-08T06:28:14;99875.31;;;8.14;79.17
63552;BME280;49698;48.072;7.800;2023-04-08T06:30:41;99876.13;;;8.14;79.42
63552;BME280;49698;48.072;7.800;2023-04-08T06:33:09;99878.00;;;8.14;79.06
63552;BME280;49698;48.072;7.800;2023-04-08T06:35:39;99875.84;;;8.16;79.21
63552;BME280;49698;48.072;7.800;2023-04-08T06:38:07;99878.56;;;8.21;79.07
63552;BME280;49698;48.072;7.800;2023-04-08T06:40:37;99875.94;;;8.26;79.27
63552;BME280;49698;48.072;7.800;2023-04-08T06:43:05;99871.69;;;8.30;78.90
63552;BME280;49698;48.072;7.800;2023-04-08T06:45:37;99874.16;;;8.37;78.69
63552;BME280;49698;48.072;7.800;2023-04-08T06:48:05;99882.00;;;8.43;78.60
63552;BME280;49698;48.072;7.800;2023-04-08T06:50:35;99886.34;;;8.49;78.42
63552;BME280;49698;48.072;7.800;2023-04-08T06:53:04;99884.19;;;8.51;78.29
63552;BME280;49698;48.072;7.800;2023-04-08T06:55:32;99885.28;;;8.55;78.32
63552;BME280;49698;48.072;7.800;2023-04-08T06:58:00;99890.13;;;8.58;78.46
63552;BME280;49698;48.072;7.800;2023-04-08T07:00:28;99889.09;;;8.60;78.30
63552;BME280;49698;48.072;7.800;2023-04-08T07:02:56;99881.84;;;8.60;78.19
63552;BME280;49698;48.072;7.800;2023-04-08T07:05:24;99884.78;;;8.58;78.45
63552;BME280;49698;48.072;7.800;2023-04-08T07:07:52;99885.88;;;8.63;78.07
63552;BME280;49698;48.072;7.800;2023-04-08T07:10:21;99891.00;;;8.64;78.27
63552;BME280;49698;48.072;7.800;2023-04-08T07:12:49;99898.00;;;8.70;78.02
63552;BME280;49698;48.072;7.800;2023-04-08T07:15:18;99886.03;;;8.83;77.58
63552;BME280;49698;48.072;7.800;2023-04-08T07:17:46;99896.84;;;8.98;77.24
63552;BME280;49698;48.072;7.800;2023-04-08T07:20:14;99896.88;;;9.14;76.80
63552;BME280;49698;48.072;7.800;2023-04-08T07:22:42;99893.47;;;9.23;76.48
63552;BME280;49698;48.072;7.800;2023-04-08T07:25:10;99892.44;;;9.35;76.18
63552;BME280;49698;48.072;7.800;2023-04-08T07:27:40;99895.97;;;9.50;75.83
63552;BME280;49698;48.072;7.800;2023-04-08T07:30:08;99900.31;;;9.67;75.04
63552;BME280;49698;48.072;7.800;2023-04-08T07:32:36;99895.50;;;9.79;74.93
63552;BME280;49698;48.072;7.800;2023-04-08T07:35:05;99901.72;;;9.90;73.93
63552;BME280;49698;48.072;7.800;2023-04-08T07:37:33;99898.25;;;9.99;73.89
63552;BME280;49698;48.072;7.800;2023-04-08T07:40:03;99905.25;;;10.11;73.95
63552;BME280;49698;48.072;7.800;2023-04-08T07:42:31;99898.28;;;10.25;72.99
63552;BME280;49698;48.072;7.800;2023-04-08T07:45:00;99896.16;;;10.42;72.67
63552;BME280;49698;48.072;7.800;2023-04-08T07:47:28;99908.78;;;10.57;72.33
63552;BME280;49698;48.072;7.800;2023-04-08T07:49:56;99901.50;;;10.73;71.84
63552;BME280;49698;48.072;7.800;2023-04-08T07:52:24;99900.41;;;10.89;70.80
63552;BME280;49698;48.072;7.800;2023-04-08T07:54:53;99898.47;;;11.05;70.21
63552;BME280;49698;48.072;7.800;2023-04-08T07:57:21;99905.16;;;11.23;70.29
63552;BME280;49698;48.072;7.800;2023-04-08T07:59:49;99904.78;;;11.50;69.30
63552;BME280;49698;48.072;7.800;2023-04-08T08:02:18;99899.63;;;11.59;68.63
63552;BME280;49698;48.072;7.800;2023-04-08T08:04:46;99906.56;;;11.65;68.78
63552;BME280;49698;48.072;7.800;2023-04-08T08:07:14;99906.50;;;11.85;67.96
63552;BME280;49698;48.072;7.800;2023-04-08T08:09:42;99907.16;;;12.06;67.53
63552;BME280;49698;48.072;7.800;2023-04-08T08:12:10;99903.47;;;12.31;66.76
63552;BME280;49698;48.072;7.800;2023-04-08T08:14:38;99909.84;;;12.45;66.25
63552;BME280;49698;48.072;7.800;2023-04-08T08:17:06;99908.16;;;12.55;66.03
63552;BME280;49698;48.072;7.800;2023-04-08T08:19:35;99919.44;;;12.57;65.86
63552;BME280;49698;48.072;7.800;2023-04-08T08:22:03;99907.56;;;12.58;65.84
63552;BME280;49698;48.072;7.800;2023-04-08T08:24:31;99908.63;;;12.62;65.73
63552;BME280;49698;48.072;7.800;2023-04-08T08:26:59;99915.94;;;12.56;65.35
63552;BME280;49698;48.072;7.800;2023-04-08T08:29:30;99914.63;;;12.54;65.99
63552;BME280;49698;48.072;7.800;2023-04-08T08:31:58;99918.16;;;12.49;66.09
63552;BME280;49698;48.072;7.800;2023-04-08T08:34:25;99907.69;;;12.42;65.99
63552;BME280;49698;48.072;7.800;2023-04-08T08:36:55;99922.34;;;11.97;68.30
63552;BME280;49698;48.072;7.800;2023-04-08T08:39:24;99916.78;;;11.68;69.63
63552;BME280;49698;48.072;7.800;2023-04-08T08:41:52;99922.47;;;11.61;70.16
63552;BME280;49698;48.072;7.800;2023-04-08T08:44:20;99914.66;;;11.70;70.27
63552;BME280;49698;48.072;7.800;2023-04-08T08:46:48;99921.53;;;11.96;69.68
63552;BME280;49698;48.072;7.800;2023-04-08T08:49:16;99920.25;;;12.23;69.37
63552;BME280;49698;48.072;7.800;2023-04-08T08:51:45;99924.56;;;12.24;69.20
63552;BME280;49698;48.072;7.800;2023-04-08T08:54:15;99924.00;;;12.27;69.64
63552;BME280;49698;48.072;7.800;2023-04-08T08:56:42;99922.31;;;12.36;69.68
63552;BME280;49698;48.072;7.800;2023-04-08T08:59:10;99917.88;;;12.51;69.74
63552;BME280;49698;48.072;7.800;2023-04-08T09:01:39;99921.84;;;12.63;68.71
63552;BME280;49698;48.072;7.800;2023-04-08T09:04:10;99927.94;;;12.74;68.70
63552;BME280;49698;48.072;7.800;2023-04-08T09:06:39;99938.16;;;12.77;68.50
63552;BME280;49698;48.072;7.800;2023-04-08T09:09:08;99934.66;;;12.77;68.66
63552;BME280;49698;48.072;7.800;2023-04-08T09:11:41;99930.66;;;12.69;67.53
63552;BME280;49698;48.072;7.800;2023-04-08T09:14:20;99931.34;;;12.51;67.73
63552;BME280;49698;48.072;7.800;2023-04-08T09:16:48;99935.81;;;12.36;68.23
63552;BME280;49698;48.072;7.800;2023-04-08T09:19:17;99928.81;;;12.30;68.92
63552;BME280;49698;48.072;7.800;2023-04-08T09:21:45;99931.03;;;12.23;68.12
63552;BME280;49698;48.072;7.800;2023-04-08T09:24:30;99939.19;;;12.13;68.46
63552;BME280;49698;48.072;7.800;2023-04-08T09:27:00;99936.31;;;11.99;69.32
63552;BME280;49698;48.072;7.800;2023-04-08T09:29:28;99933.44;;;11.85;69.74
63552;BME280;49698;48.072;7.800;2023-04-08T09:31:59;99937.78;;;11.71;70.11
63552;BME280;49698;48.072;7.800;2023-04-08T09:34:28;99935.41;;;11.59;70.27
63552;BME280;49698;48.072;7.800;2023-04-08T09:36:58;99939.78;;;11.45;70.70
63552;BME280;49698;48.072;7.800;2023-04-08T09:39:26;99941.69;;;11.34;70.75
63552;BME280;49698;48.072;7.800;2023-04-08T09:41:57;99944.44;;;11.24;70.85
63552;BME280;49698;48.072;7.800;2023-04-08T09:44:28;99939.34;;;11.17;71.24
63552;BME280;49698;48.072;7.800;2023-04-08T09:47:01;99944.47;;;11.09;71.31
63552;BME280;49698;48.072;7.800;2023-04-08T09:49:37;99950.69;;;11.04;71.68
63552;BME280;49698;48.072;7.800;2023-04-08T09:52:06;99943.41;;;10.99;72.10
63552;BME280;49698;48.072;7.800;2023-04-08T09:54:41;99945.84;;;11.01;72.50
63552;BME280;49698;48.072;7.800;2023-04-08T09:57:13;99947.44;;;11.02;72.46
63552;BME280;49698;48.072;7.800;2023-04-08T09:59:48;99952.28;;;11.05;72.26
63552;BME280;49698;48.072;7.800;2023-04-08T10:02:26;99957.38;;;11.12;72.22
63552;BME280;49698;48.072;7.800;2023-04-08T10:04:58;99950.34;;;11.21;71.59
63552;BME280;49698;48.072;7.800;2023-04-08T10:07:26;99948.16;;;11.33;71.43
63552;BME280;49698;48.072;7.800;2023-04-08T10:09:56;99947.06;;;11.44;71.37
63552;BME280;49698;48.072;7.800;2023-04-08T10:12:24;99950.78;;;11.54;70.90
63552;BME280;49698;48.072;7.800;2023-04-08T10:15:27;99951.28;;;11.66;70.16
63552;BME280;49698;48.072;7.800;2023-04-08T10:18:29;99947.97;;;11.79;69.89
63552;BME280;49698;48.072;7.800;2023-04-08T10:20:57;99949.53;;;11.95;70.00
63552;BME280;49698;48.072;7.800;2023-04-08T10:23:53;99946.50;;;12.07;69.06
63552;BME280;49698;48.072;7.800;2023-04-08T10:26:43;99948.03;;;12.18;69.81
63552;BME280;49698;48.072;7.800;2023-04-08T10:29:42;99944.75;;;12.27;68.51
63552;BME280;49698;48.072;7.800;2023-04-08T10:32:29;99946.28;;;12.38;68.55
63552;BME280;49698;48.072;7.800;2023-04-08T10:34:57;99948.56;;;12.60;68.26
63552;BME280;49698;48.072;7.800;2023-04-08T10:37:26;99939.19;;;12.81;67.75
63552;BME280;49698;48.072;7.800;2023-04-08T10:39:54;99944.88;;;13.09;67.10
63552;BME280;49698;48.072;7.800;2023-04-08T10:42:26;99937.84;;;13.37;65.32
63552;BME280;49698;48.072;7.800;2023-04-08T10:44:59;99944.00;;;13.61;64.80
63552;BME280;49698;48.072;7.800;2023-04-08T10:47:28;99942.47;;;13.98;63.93
63552;BME280;49698;48.072;7.800;2023-04-08T10:49:56;99938.88;;;14.22;62.74
63552;BME280;49698;48.072;7.800;2023-04-08T10:52:24;99942.53;;;14.12;61.94
63552;BME280;49698;48.072;7.800;2023-04-08T10:54:53;99936.00;;;14.13;62.62
63552;BME280;49698;48.072;7.800;2023-04-08T10:57:24;99935.22;;;14.12;62.11
63552;BME280;49698;48.072;7.800;2023-04-08T10:59:52;99929.53;;;13.95;61.71
63552;BME280;49698;48.072;7.800;2023-04-08T11:02:20;99935.50;;;13.73;62.79
63552;BME280;49698;48.072;7.800;2023-04-08T11:04:52;99928.56;;;13.67;62.73
63552;BME280;49698;48.072;7.800;2023-04-08T11:07:21;99933.56;;;13.55;63.09
63552;BME280;49698;48.072;7.800;2023-04-08T11:09:49;99928.78;;;13.46;62.80
63552;BME280;49698;48.072;7.800;2023-04-08T11:12:17;99914.78;;;13.44;63.04
63552;BME280;49698;48.072;7.800;2023-04-08T11:14:45;99930.53;;;13.37;62.83
63552;BME280;49698;48.072;7.800;2023-04-08T11:17:15;99927.69;;;13.29;62.95
63552;BME280;49698;48.072;7.800;2023-04-08T11:19:43;99926.88;;;13.28;62.96
63552;BME280;49698;48.072;7.800;2023-04-08T11:22:13;99928.88;;;13.41;62.48
63552;BME280;49698;48.072;7.800;2023-04-08T11:24:41;99927.50;;;13.44;62.02
63552;BME280;49698;48.072;7.800;2023-04-08T11:27:09;99923.84;;;13.54;62.08
63552;BME280;49698;48.072;7.800;2023-04-08T11:29:38;99924.59;;;13.59;61.78
63552;BME280;49698;48.072;7.800;2023-04-08T11:32:06;99928.50;;;13.72;62.01
63552;BME280;49698;48.072;7.800;2023-04-08T11:34:38;99920.84;;;13.79;61.79
63552;BME280;49698;48.072;7.800;2023-04-08T11:37:06;99922.97;;;13.82;61.60
63552;BME280;49698;48.072;7.800;2023-04-08T11:39:39;99919.16;;;13.83;60.90
63552;BME280;49698;48.072;7.800;2023-04-08T11:42:08;99914.91;;;13.96;60.57
63552;BME280;49698;48.072;7.800;2023-04-08T11:44:36;99915.22;;;13.94;59.90
63552;BME280;49698;48.072;7.800;2023-04-08T11:47:04;99916.72;;;14.01;59.44
63552;BME280;49698;48.072;7.800;2023-04-08T11:49:43;99919.38;;;14.06;59.48
63552;BME280;49698;48.072;7.800;2023-04-08T11:52:11;99910.97;;;14.07;59.00
63552;BME280;49698;48.072;7.800;2023-04-08T11:54:42;99910.59;;;14.14;59.76
63552;BME280;49698;48.072;7.800;2023-04-08T11:57:10;99905.09;;;14.19;58.66
63552;BME280;49698;48.072;7.800;2023-04-08T11:59:38;99910.44;;;14.24;58.90
63552;BME280;49698;48.072;7.800;2023-04-08T12:02:06;99904.44;;;14.27;57.81
63552;BME280;49698;48.072;7.800;2023-04-08T12:04:34;99901.25;;;14.25;58.11
63552;BME280;49698;48.072;7.800;2023-04-08T12:07:02;99900.81;;;14.18;58.08
63552;BME280;49698;48.072;7.800;2023-04-08T12:09:30;99901.38;;;14.15;57.88
63552;BME280;49698;48.072;7.800;2023-04-08T12:11:59;99902.25;;;14.29;57.76
63552;BME280;49698;48.072;7.800;2023-04-08T12:14:28;99901.25;;;14.58;57.04
63552;BME280;49698;48.072;7.800;2023-04-08T12:16:55;99902.84;;;14.91;56.44
63552;BME280;49698;48.072;7.800;2023-04-08T12:19:23;99898.03;;;15.30;55.54
63552;BME280;49698;48.072;7.800;2023-04-08T12:21:52;99890.16;;;15.56;53.73
63552;BME280;49698;48.072;7.800;2023-04-08T12:24:23;99898.38;;;15.78;54.11
63552;BME280;49698;48.072;7.800;2023-04-08T12:26:52;99896.38;;;16.06;53.74
63552;BME280;49698;48.072;7.800;2023-04-08T12:29:21;99893.41;;;16.30;52.04
63552;BME280;49698;48.072;7.800;2023-04-08T12:31:49;99892.09;;;16.28;51.72
63552;BME280;49698;48.072;7.800;2023-04-08T12:34:17;99896.03;;;16.22;51.13
63552;BME280;49698;48.072;7.800;2023-04-08T12:36:46;99889.31;;;15.97;51.73
63552;BME280;49698;48.072;7.800;2023-04-08T12:39:15;99889.69;;;15.54;52.17
63552;BME280;49698;48.072;7.800;2023-04-08T12:41:43;99896.81;;;15.08;53.36
63552;BME280;49698;48.072;7.800;2023-04-08T12:44:11;99892.47;;;14.66;53.73
63552;BME280;49698;48.072;7.800;2023-04-08T12:46:40;99893.47;;;14.37;54.81
63552;BME280;49698;48.072;7.800;2023-04-08T12:49:08;99893.84;;;14.12;55.06
63552;BME280;49698;48.072;7.800;2023-04-08T12:51:36;99894.44;;;13.90;55.49
63552;BME280;49698;48.072;7.800;2023-04-08T12:54:04;99897.75;;;13.68;55.72
63552;BME280;49698;48.072;7.800;2023-04-08T12:56:32;99887.88;;;13.58;56.30
63552;BME280;49698;48.072;7.800;2023-04-08T12:59:00;99898.19;;;13.56;56.64
63552;BME280;49698;48.072;7.800;2023-04-08T13:01:28;99897.94;;;13.53;57.14
63552;BME280;49698;48.072;7.800;2023-04-08T13:03:58;99898.03;;;13.48;57.56
63552;BME280;49698;48.072;7.800;2023-04-08T13:06:26;99898.03;;;13.48;57.56
63552;BME280;49698;48.072;7.800;2023-04-08T13:08:54;99898.38;;;13.41;57.79
63552;BME280;49698;48.072;7.800;2023-04-08T13:11:22;99894.69;;;13.32;57.76
63552;BME280;49698;48.072;7.800;2023-04-08T13:13:50;99887.69;;;13.31;58.12
63552;BME280;49698;48.072;7.800;2023-04-08T13:16:18;99895.59;;;13.46;58.11
63552;BME280;49698;48.072;7.800;2023-04-08T13:18:47;99894.06;;;13.59;58.38